createdAt,value
2017-12-01T00:01:26.235Z,19.37
2017-12-01T00:03:57.827Z,14.00
2017-12-01T00:06:29.084Z,13.10
2017-12-01T00:09:00.491Z,13.20
2017-12-01T00:11:31.796Z,14.30
2017-12-01T00:14:04.633Z,12.23
2017-12-01T00:16:36.288Z,20.60
2017-12-01T00:19:07.645Z,14.10
2017-12-01T00:21:39.231Z,13.43
2017-12-01T00:24:10.579Z,16.40
2017-12-01T00:26:41.856Z,15.37
2017-12-01T00:29:13.540Z,18.23
2017-12-01T00:31:44.868Z,19.63
2017-12-01T00:34:16.307Z,13.60
2017-12-01T00:36:51.278Z,20.97
2017-12-01T00:39:30.979Z,15.37
2017-12-01T00:42:07.436Z,16.67
2017-12-01T00:44:45.853Z,17.70
2017-12-01T00:47:17.684Z,16.77
2017-12-01T00:49:49.441Z,21.50
2017-12-01T00:52:20.952Z,16.50
2017-12-01T00:54:52.629Z,13.97
2017-12-01T00:57:23.957Z,12.03
2017-12-01T00:59:55.596Z,13.83
2017-12-01T01:02:27.175Z,16.93
2017-12-01T01:04:58.488Z,19.90
2017-12-01T01:07:31.010Z,23.23
2017-12-01T01:10:04.935Z,26.43
2017-12-01T01:12:36.306Z,15.77
2017-12-01T01:15:07.764Z,17.73
2017-12-01T01:17:39.344Z,23.37
2017-12-01T01:20:10.787Z,25.10
2017-12-01T01:22:42.158Z,20.27
2017-12-01T01:25:13.850Z,21.00
2017-12-01T01:27:45.166Z,23.53
2017-12-01T01:30:16.806Z,18.43
2017-12-01T01:32:48.117Z,27.63
2017-12-01T01:35:19.419Z,24.43
2017-12-01T01:37:51.017Z,21.60
2017-12-01T01:40:22.314Z,21.53
2017-12-01T01:42:53.666Z,26.13
2017-12-01T01:45:25.779Z,27.87
2017-12-01T01:47:57.121Z,17.13
2017-12-01T01:50:28.753Z,21.73
2017-12-01T01:53:00.068Z,21.07
2017-12-01T01:55:31.712Z,28.93
2017-12-01T01:58:04.865Z,20.00
2017-12-01T02:00:36.255Z,22.40
2017-12-01T02:03:07.908Z,21.73
2017-12-01T02:05:40.591Z,17.60
2017-12-01T02:08:13.253Z,22.47
2017-12-01T02:10:44.911Z,24.47
2017-12-01T02:13:16.377Z,19.43
2017-12-01T02:15:47.696Z,21.47
2017-12-01T02:18:19.289Z,23.77
2017-12-01T02:20:50.644Z,20.37
2017-12-01T02:23:22.427Z,21.77
2017-12-01T02:28:48.527Z,26.67
2017-12-01T02:31:20.420Z,22.57
2017-12-01T02:33:52.086Z,25.33
2017-12-01T02:36:23.904Z,25.00
2017-12-01T02:38:55.339Z,32.50
2017-12-01T02:41:26.808Z,25.80
2017-12-01T02:43:58.513Z,24.07
2017-12-01T02:46:29.926Z,26.10
2017-12-01T02:49:01.603Z,26.73
2017-12-01T02:51:33.288Z,26.10
2017-12-01T02:54:05.389Z,26.53
2017-12-01T02:56:37.364Z,22.50
2017-12-01T02:59:09.057Z,33.67
2017-12-01T03:01:41.672Z,23.40
2017-12-01T03:04:13.233Z,34.23
2017-12-01T03:06:45.907Z,24.10
2017-12-01T03:09:18.786Z,30.43
2017-12-01T03:11:50.547Z,33.17
2017-12-01T03:14:22.163Z,29.23
2017-12-01T03:16:53.880Z,23.43
2017-12-01T03:19:25.374Z,20.60
2017-12-01T03:21:57.302Z,25.23
2017-12-01T03:24:28.826Z,24.53
2017-12-01T03:27:00.236Z,25.03
2017-12-01T03:29:32.013Z,25.30
2017-12-01T03:32:04.494Z,24.30
2017-12-01T03:34:35.881Z,30.00
2017-12-01T03:37:07.318Z,20.67
2017-12-01T03:39:39.006Z,23.10
2017-12-01T03:42:10.431Z,24.73
2017-12-01T03:44:42.000Z,26.00
2017-12-01T03:47:13.706Z,26.63
2017-12-01T03:49:45.151Z,28.67
2017-12-01T03:52:16.669Z,23.67
2017-12-01T03:54:48.365Z,26.83
2017-12-01T03:57:20.281Z,25.90
2017-12-01T03:59:52.055Z,32.33
2017-12-01T04:02:23.440Z,28.00
2017-12-01T04:04:54.810Z,23.13
2017-12-01T04:07:26.478Z,23.17
2017-12-01T04:09:57.865Z,32.27
2017-12-01T04:12:29.280Z,24.90
2017-12-01T04:15:01.201Z,21.80
2017-12-01T04:17:33.740Z,37.10
2017-12-01T04:20:05.947Z,27.63
2017-12-01T04:22:38.690Z,21.60
2017-12-01T04:25:10.038Z,22.40
2017-12-01T04:27:41.974Z,22.13
2017-12-01T04:30:13.835Z,26.90
2017-12-01T04:32:45.268Z,28.37
2017-12-01T04:35:16.760Z,22.13
2017-12-01T04:37:48.456Z,23.67
2017-12-01T04:40:19.832Z,25.20
2017-12-01T04:42:51.220Z,32.10
2017-12-01T04:45:22.985Z,25.30
2017-12-01T04:47:54.377Z,28.03
2017-12-01T04:50:27.182Z,29.53
2017-12-01T04:52:58.547Z,24.40
2017-12-01T04:55:29.959Z,27.27
2017-12-01T04:58:03.753Z,35.73
2017-12-01T05:00:35.247Z,31.03
2017-12-01T05:03:06.949Z,26.00
2017-12-01T05:05:38.287Z,30.83
2017-12-01T05:08:09.648Z,34.80
2017-12-01T05:10:41.344Z,31.47
2017-12-01T05:13:13.147Z,30.80
2017-12-01T05:15:44.767Z,31.27
2017-12-01T05:18:16.914Z,31.83
2017-12-01T05:20:48.321Z,25.73
2017-12-01T05:23:20.526Z,35.83
2017-12-01T05:25:52.212Z,35.70
2017-12-01T05:28:23.855Z,32.40
2017-12-01T05:30:55.244Z,36.17
2017-12-01T05:33:27.994Z,24.63
2017-12-01T05:35:59.385Z,28.53
2017-12-01T05:38:32.396Z,30.10
2017-12-01T05:41:04.143Z,24.17
2017-12-01T05:43:36.622Z,27.80
2017-12-01T05:46:08.449Z,29.50
2017-12-01T05:48:39.837Z,28.33
2017-12-01T05:51:11.484Z,29.70
2017-12-01T05:53:42.862Z,30.70
2017-12-01T05:56:14.306Z,24.80
2017-12-01T05:58:45.763Z,25.73
2017-12-01T06:01:17.389Z,21.80
2017-12-01T06:03:49.124Z,24.73
2017-12-01T06:06:20.506Z,24.73
2017-12-01T06:08:52.160Z,22.27
2017-12-01T06:11:24.599Z,24.63
2017-12-01T06:13:55.990Z,24.40
2017-12-01T06:16:27.679Z,27.83
2017-12-01T06:18:59.101Z,27.30
2017-12-01T06:21:30.503Z,22.03
2017-12-01T06:24:02.991Z,25.03
2017-12-01T06:26:41.212Z,23.80
2017-12-01T06:29:12.918Z,28.57
2017-12-01T06:31:44.417Z,23.93
2017-12-01T06:34:16.134Z,25.33
2017-12-01T06:36:47.764Z,31.73
2017-12-01T06:39:19.202Z,27.30
2017-12-01T06:41:50.963Z,29.93
2017-12-01T06:44:22.373Z,23.57
2017-12-01T06:46:53.768Z,28.70
2017-12-01T06:49:25.421Z,23.13
2017-12-01T06:51:56.803Z,25.37
2017-12-01T06:54:28.201Z,28.60
2017-12-01T06:56:59.926Z,27.80
2017-12-01T06:59:31.668Z,33.33
2017-12-01T07:02:03.824Z,30.00
2017-12-01T07:04:35.501Z,30.10
2017-12-01T07:07:06.976Z,28.70
2017-12-01T07:09:39.729Z,28.03
2017-12-01T07:12:11.038Z,31.30
2017-12-01T07:14:42.497Z,27.90
2017-12-01T07:17:14.300Z,26.30
2017-12-01T07:19:45.894Z,25.90
2017-12-01T07:22:19.235Z,26.70
2017-12-01T07:24:51.362Z,30.80
2017-12-01T07:27:24.762Z,23.80
2017-12-01T07:32:23.031Z,35.40
2017-12-01T07:34:54.708Z,27.73
2017-12-01T07:37:26.878Z,25.97
2017-12-01T07:39:58.702Z,29.53
2017-12-01T07:42:30.691Z,30.47
2017-12-01T07:45:02.455Z,27.07
2017-12-01T07:47:33.863Z,28.63
2017-12-01T07:50:06.419Z,26.43
2017-12-01T07:52:38.815Z,25.77
2017-12-01T07:55:10.225Z,20.43
2017-12-01T07:57:42.042Z,33.13
2017-12-01T08:00:13.502Z,21.47
2017-12-01T08:02:44.916Z,21.10
2017-12-01T08:05:16.901Z,22.87
2017-12-01T08:07:48.559Z,33.10
2017-12-01T08:10:21.414Z,28.67
2017-12-01T08:12:53.124Z,23.93
2017-12-01T08:15:26.140Z,20.13
2017-12-01T08:18:06.586Z,26.67
2017-12-01T08:20:38.959Z,21.20
2017-12-01T08:23:19.535Z,22.20
2017-12-01T08:25:51.113Z,31.90
2017-12-01T08:28:23.077Z,27.53
2017-12-01T08:30:54.461Z,26.50
2017-12-01T08:33:26.039Z,23.33
2017-12-01T08:35:57.456Z,25.10
2017-12-01T08:38:28.852Z,30.00
2017-12-01T08:41:00.249Z,29.37
2017-12-01T08:43:34.052Z,25.43
2017-12-01T08:46:06.816Z,30.43
2017-12-01T08:48:38.573Z,26.40
2017-12-01T08:51:09.928Z,23.10
2017-12-01T08:53:41.892Z,34.43
2017-12-01T08:56:13.212Z,29.73
2017-12-01T08:58:44.561Z,27.20
2017-12-01T09:01:16.451Z,28.63
2017-12-01T09:03:47.900Z,24.40
2017-12-01T09:06:20.438Z,25.87
2017-12-01T09:08:51.734Z,28.90
2017-12-01T09:11:23.055Z,32.60
2017-12-01T09:13:54.715Z,25.80
2017-12-01T09:16:26.014Z,33.20
2017-12-01T09:18:57.340Z,36.63
2017-12-01T09:21:29.241Z,29.70
2017-12-01T09:24:00.772Z,23.13
2017-12-01T09:26:32.528Z,26.53
2017-12-01T09:29:04.279Z,22.80
2017-12-01T09:31:37.087Z,20.00
2017-12-01T09:34:08.727Z,24.97
2017-12-01T09:36:40.040Z,31.13
2017-12-01T09:39:11.672Z,27.60
2017-12-01T09:41:43.084Z,31.30
2017-12-01T09:44:14.670Z,28.30
2017-12-01T09:46:46.351Z,27.13
2017-12-01T09:49:17.856Z,34.27
2017-12-01T09:54:19.451Z,32.33
2017-12-01T09:56:50.773Z,22.70
2017-12-01T09:59:22.112Z,22.03
2017-12-01T10:01:53.787Z,19.20
2017-12-01T10:04:25.398Z,21.53
2017-12-01T10:06:56.753Z,16.50
2017-12-01T10:09:28.479Z,19.80
2017-12-01T10:11:59.849Z,17.30
2017-12-01T10:14:31.411Z,23.97
2017-12-01T10:17:03.392Z,23.37
2017-12-01T10:19:34.831Z,24.87
2017-12-01T10:22:07.774Z,27.80
2017-12-01T10:24:40.096Z,22.17
2017-12-01T10:27:11.528Z,24.03
2017-12-01T10:29:44.172Z,30.47
2017-12-01T10:32:15.876Z,24.63
2017-12-01T10:34:47.243Z,30.63
2017-12-01T10:37:20.090Z,22.57
2017-12-01T10:39:51.455Z,25.33
2017-12-01T10:42:23.100Z,31.33
2017-12-01T10:44:54.726Z,24.80
2017-12-01T10:47:27.936Z,26.37
2017-12-01T10:49:59.540Z,26.37
2017-12-01T10:52:32.045Z,26.50
2017-12-01T10:55:04.259Z,23.80
2017-12-01T10:57:35.909Z,25.67
2017-12-01T11:00:07.311Z,24.00
2017-12-01T11:02:38.615Z,32.67
2017-12-01T11:05:10.301Z,32.03
2017-12-01T11:07:41.686Z,28.53
2017-12-01T11:10:13.020Z,21.47
2017-12-01T11:12:44.694Z,26.30
2017-12-01T11:15:16.199Z,25.70
2017-12-01T11:17:47.550Z,22.10
2017-12-01T11:20:19.196Z,25.30
2017-12-01T11:22:50.564Z,30.50
2017-12-01T11:25:22.190Z,29.60
2017-12-01T11:27:53.572Z,28.33
2017-12-01T11:30:25.559Z,34.80
2017-12-01T11:32:57.262Z,30.10
2017-12-01T11:35:30.707Z,22.23
2017-12-01T11:38:03.908Z,25.43
2017-12-01T11:40:35.281Z,27.07
2017-12-01T11:43:06.950Z,32.47
2017-12-01T11:45:38.270Z,31.33
2017-12-01T11:48:09.612Z,27.80
2017-12-01T11:50:41.209Z,27.53
2017-12-01T11:53:12.615Z,30.97
2017-12-01T11:55:44.068Z,35.33
2017-12-01T11:58:15.774Z,32.93
2017-12-01T12:00:47.696Z,30.53
2017-12-01T12:03:19.231Z,27.70
2017-12-01T12:05:50.707Z,24.03
2017-12-01T12:08:23.763Z,25.33
2017-12-01T12:10:56.328Z,23.50
2017-12-01T12:13:27.980Z,21.13
2017-12-01T12:15:59.761Z,29.13
2017-12-01T12:18:31.142Z,29.20
2017-12-01T12:21:03.115Z,18.83
2017-12-01T12:23:35.263Z,24.33
2017-12-01T12:29:10.065Z,26.90
2017-12-01T12:31:41.585Z,39.30
2017-12-01T12:34:13.031Z,29.57
2017-12-01T12:36:45.155Z,31.60
2017-12-01T12:39:16.847Z,32.70
2017-12-01T12:41:49.356Z,30.20
2017-12-01T12:44:23.528Z,41.87
2017-12-01T12:46:55.233Z,35.40
2017-12-01T12:49:27.140Z,35.23
2017-12-01T12:52:00.783Z,34.83
2017-12-01T12:54:36.685Z,26.83
2017-12-01T12:57:09.025Z,43.53
2017-12-01T12:59:40.403Z,40.77
2017-12-01T13:02:12.087Z,26.20
2017-12-01T13:04:43.576Z,32.23
2017-12-01T13:07:15.338Z,33.27
2017-12-01T13:09:46.850Z,31.30
2017-12-01T13:12:18.852Z,31.97
2017-12-01T13:14:50.547Z,42.63
2017-12-01T13:17:21.918Z,37.53
2017-12-01T13:19:53.606Z,41.90
2017-12-01T13:22:24.965Z,39.57
2017-12-01T13:24:56.548Z,39.03
2017-12-01T13:27:28.577Z,38.13
2017-12-01T13:30:00.272Z,34.70
2017-12-01T13:32:32.174Z,44.37
2017-12-01T13:35:04.643Z,32.93
2017-12-01T13:37:36.023Z,29.97
2017-12-01T13:40:07.696Z,32.20
2017-12-01T13:42:39.941Z,33.97
2017-12-01T13:45:11.368Z,33.60
2017-12-01T13:47:43.107Z,32.17
2017-12-01T13:50:15.368Z,37.57
2017-12-01T13:52:47.103Z,31.60
2017-12-01T13:55:18.900Z,32.97
2017-12-01T13:57:50.322Z,30.33
2017-12-01T14:00:24.582Z,32.60
2017-12-01T14:02:56.002Z,40.23
2017-12-01T14:05:29.400Z,35.40
2017-12-01T14:08:02.820Z,30.50
2017-12-01T14:10:35.016Z,32.50
2017-12-01T14:13:06.395Z,36.83
2017-12-01T14:15:39.915Z,31.37
2017-12-01T14:18:11.299Z,33.57
2017-12-01T14:20:42.666Z,29.80
2017-12-01T14:23:14.330Z,38.53
2017-12-01T14:25:45.648Z,32.57
2017-12-01T14:28:17.215Z,35.87
2017-12-01T14:30:48.819Z,33.10
2017-12-01T14:33:20.882Z,34.77
2017-12-01T14:35:52.469Z,28.40
2017-12-01T14:38:26.111Z,33.60
2017-12-01T14:40:57.453Z,32.30
2017-12-01T14:43:30.869Z,32.43
2017-12-01T14:46:02.951Z,28.20
2017-12-01T14:48:34.964Z,27.60
2017-12-01T14:51:06.357Z,31.40
2017-12-01T14:53:39.383Z,33.70
2017-12-01T14:56:10.999Z,30.50
2017-12-01T14:58:43.104Z,29.97
2017-12-01T15:01:14.806Z,31.87
2017-12-01T15:03:46.174Z,33.00
2017-12-01T15:06:19.028Z,33.80
2017-12-01T15:09:53.240Z,37.77
2017-12-01T15:12:25.505Z,39.63
2017-12-01T15:14:57.125Z,32.03
2017-12-01T15:17:28.616Z,27.20
2017-12-01T15:19:59.945Z,30.17
2017-12-01T15:22:31.828Z,29.93
2017-12-01T15:25:04.048Z,32.27
2017-12-01T15:27:35.698Z,28.83
2017-12-01T15:30:07.096Z,28.40
2017-12-01T15:32:38.543Z,26.80
2017-12-01T15:35:10.349Z,26.70
2017-12-01T15:37:41.826Z,33.87
2017-12-01T15:40:13.254Z,35.63
2017-12-01T15:42:44.959Z,34.43
2017-12-01T15:45:16.655Z,28.67
2017-12-01T15:47:48.332Z,32.27
2017-12-01T15:50:19.818Z,33.93
2017-12-01T15:52:51.158Z,40.73
2017-12-01T15:55:23.994Z,36.67
2017-12-01T15:57:55.406Z,30.43
2017-12-01T16:00:28.750Z,40.37
2017-12-01T16:03:00.753Z,41.70
2017-12-01T16:05:32.662Z,36.03
2017-12-01T16:08:05.318Z,35.80
2017-12-01T16:10:37.128Z,40.80
2017-12-01T16:13:08.497Z,40.30
2017-12-01T16:15:40.211Z,43.97
2017-12-01T16:18:11.633Z,36.93
2017-12-01T16:20:43.409Z,34.97
2017-12-01T16:23:15.157Z,40.63
2017-12-01T16:25:46.687Z,37.37
2017-12-01T16:28:18.083Z,38.70
2017-12-01T16:30:49.710Z,34.43
2017-12-01T16:33:23.146Z,29.73
2017-12-01T16:35:54.797Z,32.83
2017-12-01T16:38:27.969Z,34.90
2017-12-01T16:40:59.347Z,30.83
2017-12-01T16:43:31.006Z,35.30
2017-12-01T16:46:04.290Z,43.50
2017-12-01T16:48:36.708Z,39.47
2017-12-01T16:51:08.143Z,28.13
2017-12-01T16:53:39.541Z,39.57
2017-12-01T16:56:12.552Z,23.93
2017-12-01T16:58:47.266Z,23.90
2017-12-01T17:01:21.341Z,28.23
2017-12-01T17:03:53.276Z,25.73
2017-12-01T17:06:25.113Z,25.27
2017-12-01T17:08:56.966Z,27.83
2017-12-01T17:11:28.405Z,35.67
2017-12-01T17:14:00.455Z,29.77
2017-12-01T17:16:31.879Z,32.00
2017-12-01T17:19:03.732Z,23.67
2017-12-01T17:21:35.598Z,32.90
2017-12-01T17:24:06.995Z,30.20
2017-12-01T17:26:38.640Z,31.40
2017-12-01T17:29:09.982Z,28.27
2017-12-01T17:31:41.348Z,30.93
2017-12-01T17:34:13.210Z,27.30
2017-12-01T17:36:45.762Z,32.57
2017-12-01T17:39:17.663Z,45.80
2017-12-01T17:41:49.063Z,34.47
2017-12-01T17:44:22.862Z,33.97
2017-12-01T17:46:54.872Z,31.30
2017-12-01T17:49:27.222Z,32.23
2017-12-01T17:51:58.850Z,34.27
2017-12-01T17:54:32.247Z,31.90
2017-12-01T17:57:03.955Z,26.83
2017-12-01T17:59:37.162Z,32.30
2017-12-01T18:02:09.255Z,28.07
2017-12-01T18:04:40.951Z,25.83
2017-12-01T18:07:12.679Z,27.20
2017-12-01T18:09:44.619Z,26.17
2017-12-01T18:12:16.271Z,37.13
2017-12-01T18:14:48.197Z,27.67
2017-12-01T18:17:19.784Z,26.50
2017-12-01T18:19:51.787Z,28.40
2017-12-01T18:22:23.404Z,31.70
2017-12-01T18:24:54.828Z,28.03
2017-12-01T18:27:26.846Z,27.30
2017-12-01T18:29:58.287Z,40.23
2017-12-01T18:32:29.677Z,28.83
2017-12-01T18:35:01.386Z,30.83
2017-12-01T18:37:33.712Z,28.83
2017-12-01T18:40:07.067Z,28.30
2017-12-01T18:42:38.511Z,30.00
2017-12-01T18:45:09.956Z,26.60
2017-12-01T18:47:42.496Z,28.47
2017-12-01T18:50:13.917Z,23.13
2017-12-01T18:52:45.676Z,33.50
2017-12-01T18:55:17.201Z,35.90
2017-12-01T18:57:48.560Z,26.63
2017-12-01T19:00:22.394Z,29.47
2017-12-01T19:02:53.801Z,34.60
2017-12-01T19:05:26.431Z,26.00
2017-12-01T19:07:57.841Z,31.30
2017-12-01T19:10:29.767Z,30.53
2017-12-01T19:13:01.514Z,28.60
2017-12-01T19:15:33.771Z,33.17
2017-12-01T19:18:06.627Z,34.57
2017-12-01T19:20:38.164Z,34.17
2017-12-01T19:23:09.867Z,34.27
2017-12-01T19:25:42.712Z,31.77
2017-12-01T19:28:14.604Z,34.17
2017-12-01T19:30:46.828Z,36.60
2017-12-01T19:33:18.492Z,34.23
2017-12-01T19:35:50.170Z,32.90
2017-12-01T19:38:22.401Z,33.20
2017-12-01T19:40:54.060Z,29.97
2017-12-01T19:43:28.474Z,40.13
2017-12-01T19:46:00.040Z,28.43
2017-12-01T19:48:31.964Z,35.70
2017-12-01T19:51:05.142Z,29.93
2017-12-01T19:53:37.449Z,34.00
2017-12-01T19:58:45.690Z,30.13
2017-12-01T20:01:17.503Z,32.30
2017-12-01T20:03:49.284Z,33.77
2017-12-01T20:06:21.084Z,30.30
2017-12-01T20:08:57.268Z,30.23
2017-12-01T20:11:28.742Z,34.27
2017-12-01T20:14:00.160Z,31.07
2017-12-01T20:16:37.124Z,42.70
2017-12-01T20:19:08.696Z,40.63
2017-12-01T20:21:41.511Z,33.70
2017-12-01T20:24:12.889Z,36.20
2017-12-01T20:26:44.862Z,39.90
2017-12-01T20:29:17.467Z,39.37
2017-12-01T20:31:49.139Z,47.17
2017-12-01T20:34:20.830Z,41.30
2017-12-01T20:36:52.196Z,34.20
2017-12-01T20:39:23.946Z,37.47
2017-12-01T20:41:55.847Z,46.80
2017-12-01T20:44:27.230Z,51.70
2017-12-01T20:46:58.961Z,36.60
2017-12-01T20:49:31.471Z,34.73
2017-12-01T20:54:47.961Z,37.40
2017-12-01T20:57:20.642Z,39.80
2017-12-01T20:59:52.515Z,36.50
2017-12-01T21:02:24.438Z,38.97
2017-12-01T21:04:55.865Z,35.73
2017-12-01T21:07:27.498Z,44.43
2017-12-01T21:09:58.927Z,41.80
2017-12-01T21:12:30.322Z,46.47
2017-12-01T21:15:02.371Z,40.63
2017-12-01T21:17:33.951Z,40.97
2017-12-01T21:20:07.330Z,42.93
2017-12-01T21:22:39.146Z,33.97
2017-12-01T21:25:11.109Z,32.03
2017-12-01T21:27:42.539Z,39.33
2017-12-01T21:30:14.002Z,31.73
2017-12-01T21:32:45.679Z,40.40
2017-12-01T21:35:17.206Z,36.50
2017-12-01T21:37:48.643Z,33.13
2017-12-01T21:40:20.516Z,41.90
2017-12-01T21:42:52.114Z,34.33
2017-12-01T21:45:23.808Z,27.17
2017-12-01T21:47:55.762Z,42.47
2017-12-01T21:50:27.578Z,48.43
2017-12-01T21:52:59.828Z,37.00
2017-12-01T21:55:31.163Z,28.90
2017-12-01T21:58:04.844Z,34.67
2017-12-01T22:00:36.341Z,39.93
2017-12-01T22:03:07.698Z,37.63
2017-12-01T22:05:39.535Z,31.37
2017-12-01T22:08:10.956Z,31.43
2017-12-01T22:10:42.714Z,32.13
2017-12-01T22:13:14.697Z,52.60
2017-12-01T22:15:46.237Z,34.57
2017-12-01T22:18:18.149Z,30.27
2017-12-01T22:20:49.561Z,36.00
2017-12-01T22:23:22.160Z,31.47
2017-12-01T22:28:26.797Z,32.20
2017-12-01T22:30:58.197Z,28.77
2017-12-01T22:33:29.866Z,30.63
2017-12-01T22:36:01.426Z,32.00
2017-12-01T22:38:33.683Z,32.70
2017-12-01T22:41:06.011Z,33.47
2017-12-01T22:43:38.550Z,33.97
2017-12-01T22:46:10.175Z,34.87
2017-12-01T22:48:41.535Z,33.73
2017-12-01T22:51:13.080Z,29.97
2017-12-01T22:53:44.848Z,33.60
2017-12-01T22:56:16.284Z,31.83
2017-12-01T22:58:47.975Z,30.53
2017-12-01T23:01:19.567Z,31.57
2017-12-01T23:03:51.225Z,35.90
2017-12-01T23:06:23.049Z,39.63
2017-12-01T23:08:55.754Z,31.03
2017-12-01T23:11:29.103Z,36.93
2017-12-01T23:14:01.158Z,37.50
2017-12-01T23:16:34.904Z,30.40
2017-12-01T23:19:07.262Z,31.43
2017-12-01T23:21:39.082Z,35.03
2017-12-01T23:24:12.251Z,29.63
2017-12-01T23:26:44.059Z,30.53
2017-12-01T23:32:12.029Z,32.73
2017-12-01T23:34:43.666Z,31.77
2017-12-01T23:37:15.012Z,40.47
2017-12-01T23:39:46.615Z,32.60
2017-12-01T23:42:18.351Z,34.53
2017-12-01T23:44:50.382Z,33.13
2017-12-01T23:47:22.455Z,31.30
2017-12-01T23:49:55.956Z,40.37
2017-12-01T23:52:28.329Z,35.37
2017-12-01T23:55:03.270Z,30.37
2017-12-01T23:57:38.974Z,32.33
